Time;durP1;ratioP1;P1;durP2;ratioP2;P2;SDS_P1;SDS_P2;PMS_P1;PMS_P2;Temp;Humidity;BMP_temperature;BMP_pressure;BME280_temperature;BME280_humidity;BME280_pressure;Samples;Min_cycle;Max_cycle;Signal;HPM_P1;HPM_P2
2022/09/16 00:00:46;;;;;;;714.20;593.92;;;16.80;99.90;;;;;;5048188;28;20209;-79
2022/09/16 00:03:13;;;;;;;719.35;622.65;;;16.70;99.90;;;;;;5040393;28;20223;-79
2022/09/16 00:05:42;;;;;;;721.50;628.72;;;16.70;99.90;;;;;;5043390;28;20214;-80
2022/09/16 00:08:09;;;;;;;717.17;600.25;;;16.70;99.90;;;;;;5046885;28;20225;-79
2022/09/16 00:10:36;;;;;;;718.25;618.25;;;16.70;99.90;;;;;;5034975;28;20206;-80
2022/09/16 00:13:04;;;;;;;723.88;636.70;;;16.70;99.90;;;;;;5031000;28;20214;-80
2022/09/16 00:15:31;;;;;;;724.08;635.65;;;16.70;99.90;;;;;;5031523;28;20731;-80
2022/09/16 00:17:58;;;;;;;720.60;615.47;;;16.70;99.90;;;;;;5049654;28;20201;-79
2022/09/16 00:20:25;;;;;;;717.75;619.42;;;16.70;99.90;;;;;;5043169;28;20606;-79
2022/09/16 00:22:52;;;;;;;712.95;585.42;;;16.70;99.90;;;;;;5047316;28;20203;-79
2022/09/16 00:25:19;;;;;;;722.38;631.88;;;16.70;99.90;;;;;;5051045;28;20202;-79
2022/09/16 00:27:47;;;;;;;720.05;623.28;;;16.70;99.90;;;;;;5051072;28;20317;-80
2022/09/16 00:30:16;;;;;;;723.47;634.38;;;16.70;99.90;;;;;;5048699;28;20209;-79
2022/09/16 00:32:43;;;;;;;713.05;590.72;;;16.60;99.90;;;;;;5045474;28;21576;-79
2022/09/16 00:35:09;;;;;;;720.45;617.17;;;16.60;99.90;;;;;;5046297;28;20222;-80
2022/09/16 00:37:36;;;;;;;720.10;619.42;;;16.60;99.90;;;;;;5049267;28;20248;-80
2022/09/16 00:40:03;;;;;;;719.03;616.28;;;16.60;99.90;;;;;;5050609;28;20285;-79
2022/09/16 00:42:30;;;;;;;722.90;628.55;;;16.60;99.90;;;;;;5064190;28;20194;-80
2022/09/16 00:45:01;;;;;;;721.10;628.00;;;16.60;99.90;;;;;;5070423;28;20664;-80
2022/09/16 00:47:34;;;;;;;718.97;621.50;;;16.60;99.90;;;;;;5043330;28;20195;-80
2022/09/16 00:50:06;;;;;;;713.78;585.78;;;16.60;99.90;;;;;;5048267;28;20625;-79
2022/09/16 00:52:34;;;;;;;719.28;614.10;;;16.60;99.90;;;;;;5043941;28;20205;-79
2022/09/16 00:55:06;;;;;;;722.30;625.97;;;16.60;99.90;;;;;;5050655;28;20264;-79
2022/09/16 00:57:34;;;;;;;719.83;614.97;;;16.60;99.90;;;;;;5051221;28;20210;-80
2022/09/16 01:00:01;;;;;;;717.35;611.75;;;16.60;99.90;;;;;;5048747;28;20217;-80
2022/09/16 01:02:30;;;;;;;722.97;631.40;;;16.60;99.90;;;;;;5047502;28;20204;-80
2022/09/16 01:05:00;;;;;;;720.78;622.40;;;16.50;99.90;;;;;;5049772;28;20219;-79
2022/09/16 01:07:33;;;;;;;720.45;621.08;;;16.50;99.90;;;;;;5047004;28;20599;-79
2022/09/16 01:09:59;;;;;;;718.38;612.60;;;16.50;99.90;;;;;;5051027;28;20278;-79
2022/09/16 01:12:28;;;;;;;723.03;626.35;;;16.50;99.90;;;;;;5054152;28;20252;-79
2022/09/16 01:14:57;;;;;;;719.22;616.65;;;16.50;99.90;;;;;;5052941;28;20312;-79
2022/09/16 01:17:57;;;;;;;718.85;613.13;;;16.50;99.90;;;;;;5052860;28;20300;-79
2022/09/16 01:20:54;;;;;;;713.92;580.70;;;16.50;99.90;;;;;;5053146;28;20213;-79
2022/09/16 01:24:02;;;;;;;721.92;613.05;;;16.50;99.90;;;;;;5052703;28;20600;-80
2022/09/16 01:27:02;;;;;;;718.78;603.53;;;16.50;99.90;;;;;;5049919;28;20201;-79
2022/09/16 01:30:01;;;;;;;719.95;614.53;;;16.40;99.90;;;;;;5049061;28;20819;-80
2022/09/16 01:32:35;;;;;;;710.72;571.65;;;16.50;99.90;;;;;;5045086;28;20574;-80
2022/09/16 01:35:07;;;;;;;722.75;621.92;;;16.40;99.90;;;;;;5050976;28;20318;-79
2022/09/16 01:37:42;;;;;;;721.13;607.40;;;16.40;99.90;;;;;;5049748;28;20210;-80
2022/09/16 01:40:16;;;;;;;721.10;616.22;;;16.40;99.90;;;;;;5052926;28;20200;-80
2022/09/16 01:42:53;;;;;;;719.88;613.50;;;16.40;99.90;;;;;;5053584;28;20198;-79
2022/09/16 01:45:28;;;;;;;717.83;609.78;;;16.40;99.90;;;;;;5046185;28;20573;-80
2022/09/16 01:48:05;;;;;;;718.40;606.97;;;16.40;99.90;;;;;;5053198;28;20206;-81
2022/09/16 01:50:39;;;;;;;714.70;592.60;;;16.40;99.90;;;;;;5053549;28;20190;-80
2022/09/16 01:53:14;;;;;;;720.67;613.53;;;16.40;99.90;;;;;;5047781;28;20195;-80
2022/09/16 01:55:45;;;;;;;714.83;597.88;;;16.40;99.90;;;;;;5049305;28;20266;-80
2022/09/16 01:58:28;;;;;;;712.53;580.78;;;16.40;99.90;;;;;;5051915;28;20199;-80
2022/09/16 02:01:01;;;;;;;714.28;591.20;;;16.40;99.90;;;;;;5049870;28;20222;-80
2022/09/16 02:03:33;;;;;;;714.53;585.55;;;16.40;99.90;;;;;;5053106;28;20218;-81
2022/09/16 02:06:03;;;;;;;715.47;599.92;;;16.30;99.90;;;;;;5053417;28;20206;-80
2022/09/16 02:08:36;;;;;;;720.75;615.58;;;16.30;99.90;;;;;;5049556;28;20206;-80
2022/09/16 02:11:08;;;;;;;717.92;610.13;;;16.30;99.90;;;;;;5037657;28;20197;-81
2022/09/16 02:13:39;;;;;;;717.70;608.03;;;16.30;99.90;;;;;;5053282;28;20198;-80
2022/09/16 02:16:13;;;;;;;717.83;593.13;;;16.30;99.90;;;;;;5050830;28;20248;-81
2022/09/16 02:18:46;;;;;;;718.25;606.13;;;16.40;99.90;;;;;;5047909;28;20200;-80
2022/09/16 02:21:16;;;;;;;713.53;594.58;;;16.30;99.90;;;;;;5053944;28;20201;-81
2022/09/16 02:23:47;;;;;;;715.25;596.95;;;16.30;99.90;;;;;;5059206;28;20244;-81
2022/09/16 02:26:17;;;;;;;717.92;613.35;;;16.40;99.90;;;;;;5057018;28;20262;-82
2022/09/16 02:28:47;;;;;;;718.35;607.78;;;16.30;99.90;;;;;;5056152;28;20209;-81
2022/09/16 02:31:14;;;;;;;715.88;598.25;;;16.30;99.90;;;;;;5046713;28;20199;-81
2022/09/16 02:33:47;;;;;;;717.63;599.85;;;16.30;99.90;;;;;;5059564;28;20296;-80
2022/09/16 02:36:22;;;;;;;716.42;599.67;;;16.30;99.90;;;;;;5046770;28;20194;-80
2022/09/16 02:38:53;;;;;;;715.00;591.85;;;16.30;99.90;;;;;;5055655;28;20201;-80
2022/09/16 02:41:20;;;;;;;716.78;600.20;;;16.30;99.90;;;;;;5044152;28;20206;-80
2022/09/16 02:43:46;;;;;;;720.08;606.22;;;16.30;99.90;;;;;;5052152;28;20197;-80
2022/09/16 02:46:23;;;;;;;717.22;603.10;;;16.30;99.90;;;;;;5055411;28;20224;-80
2022/09/16 02:48:58;;;;;;;716.40;600.33;;;16.30;99.90;;;;;;5053652;28;20197;-80
2022/09/16 02:51:32;;;;;;;715.22;595.28;;;16.30;99.90;;;;;;5051650;28;20194;-79
2022/09/16 02:54:04;;;;;;;717.45;600.50;;;16.30;99.90;;;;;;5053716;28;20192;-81
2022/09/16 02:56:34;;;;;;;711.03;566.40;;;16.30;99.90;;;;;;5051887;28;20204;-80
2022/09/16 02:59:02;;;;;;;716.45;590.80;;;16.30;99.90;;;;;;5050059;28;20298;-80
2022/09/16 03:01:32;;;;;;;711.40;576.58;;;16.30;99.90;;;;;;5050022;28;20208;-79
2022/09/16 03:04:01;;;;;;;717.35;602.47;;;16.30;99.90;;;;;;5052269;28;20214;-81
2022/09/16 03:06:31;;;;;;;715.83;595.50;;;16.20;99.90;;;;;;5052846;28;20198;-79
2022/09/16 03:09:00;;;;;;;717.17;587.55;;;16.20;99.90;;;;;;5054003;28;20195;-79
2022/09/16 03:11:46;;;;;;;719.42;610.67;;;16.20;99.90;;;;;;5062521;28;20193;-80
2022/09/16 03:14:27;;;;;;;710.42;569.08;;;16.20;99.90;;;;;;5054430;28;20232;-80
2022/09/16 03:17:02;;;;;;;716.55;591.22;;;16.20;99.90;;;;;;5054150;28;20206;-79
2022/09/16 03:19:39;;;;;;;713.75;589.40;;;16.20;99.90;;;;;;5049426;28;20681;-80
2022/09/16 03:22:15;;;;;;;715.47;587.63;;;16.20;99.90;;;;;;5041468;28;20208;-79
2022/09/16 03:24:52;;;;;;;708.95;563.55;;;16.20;99.90;;;;;;5055092;28;20190;-80
2022/09/16 03:27:28;;;;;;;716.78;593.03;;;16.20;99.90;;;;;;5054100;28;20212;-79
2022/09/16 03:30:01;;;;;;;716.72;592.40;;;16.20;99.90;;;;;;5050056;28;20213;-79
2022/09/16 03:32:32;;;;;;;715.25;590.63;;;16.20;99.90;;;;;;5043773;28;20209;-79
2022/09/16 03:35:04;;;;;;;711.97;566.33;;;16.20;99.90;;;;;;5043011;28;20211;-80
2022/09/16 03:37:35;;;;;;;707.95;559.90;;;16.20;99.90;;;;;;5054342;28;20196;-79
2022/09/16 03:40:07;;;;;;;713.42;575.50;;;16.20;99.90;;;;;;5054517;28;20217;-78
2022/09/16 03:42:34;;;;;;;715.63;590.83;;;16.20;99.90;;;;;;5050820;28;20202;-80
2022/09/16 03:45:01;;;;;;;714.28;590.75;;;16.20;99.90;;;;;;5051761;28;20744;-79
2022/09/16 03:47:28;;;;;;;715.75;593.90;;;16.20;99.90;;;;;;5053683;28;20194;-79
2022/09/16 03:49:55;;;;;;;708.67;564.88;;;16.10;99.90;;;;;;5041239;28;20202;-79
2022/09/16 03:52:23;;;;;;;712.03;568.05;;;16.20;99.90;;;;;;5051911;28;20289;-79
2022/09/16 03:54:49;;;;;;;716.28;595.33;;;16.20;99.90;;;;;;5053324;28;20217;-79
2022/09/16 03:57:16;;;;;;;713.58;586.95;;;16.10;99.90;;;;;;5049911;28;20208;-78
2022/09/16 03:59:43;;;;;;;715.28;593.33;;;16.20;99.90;;;;;;5056842;28;20268;-80
2022/09/16 04:02:10;;;;;;;709.30;561.97;;;16.20;99.90;;;;;;5055643;28;20205;-80
2022/09/16 04:04:37;;;;;;;712.13;567.00;;;16.20;99.90;;;;;;5055733;28;20252;-79
2022/09/16 04:07:04;;;;;;;719.67;604.30;;;16.20;99.90;;;;;;5050327;28;20198;-80
2022/09/16 04:09:32;;;;;;;710.28;571.22;;;16.20;99.90;;;;;;5053371;28;20657;-79
2022/09/16 04:11:59;;;;;;;708.13;566.03;;;16.10;99.90;;;;;;5059455;28;20221;-79
2022/09/16 04:14:25;;;;;;;718.58;601.65;;;16.10;99.90;;;;;;5053693;28;20202;-79
2022/09/16 04:16:52;;;;;;;707.83;560.92;;;16.10;99.90;;;;;;5045944;28;20210;-81
2022/09/16 04:19:19;;;;;;;713.97;593.83;;;16.10;99.90;;;;;;5060634;28;20202;-79
2022/09/16 04:21:46;;;;;;;712.40;588.10;;;16.10;99.90;;;;;;5054240;28;20772;-79
2022/09/16 04:24:13;;;;;;;714.05;586.45;;;16.10;99.90;;;;;;5050868;28;20212;-80
2022/09/16 04:26:41;;;;;;;712.25;564.65;;;16.10;99.90;;;;;;5047652;28;20205;-79
2022/09/16 04:29:08;;;;;;;714.55;590.65;;;16.10;99.90;;;;;;5051333;28;20205;-80
2022/09/16 04:31:35;;;;;;;708.28;555.55;;;16.10;99.90;;;;;;5053212;28;20211;-80
2022/09/16 04:34:03;;;;;;;709.17;565.13;;;16.10;99.90;;;;;;5048037;28;20205;-80
2022/09/16 04:36:29;;;;;;;718.42;597.75;;;16.10;99.90;;;;;;5048251;28;20683;-80
2022/09/16 04:38:56;;;;;;;714.55;588.97;;;16.10;99.90;;;;;;5052543;28;20205;-81
2022/09/16 04:41:24;;;;;;;716.38;587.90;;;16.10;99.90;;;;;;5056679;28;20216;-80
2022/09/16 04:43:54;;;;;;;715.35;593.40;;;16.10;99.90;;;;;;5057397;28;20198;-80
2022/09/16 04:46:22;;;;;;;707.45;562.22;;;16.00;99.90;;;;;;5057054;28;20212;-80
2022/09/16 04:48:49;;;;;;;714.92;583.95;;;16.00;99.90;;;;;;5062664;28;20201;-80
2022/09/16 04:51:18;;;;;;;713.35;591.50;;;16.00;99.90;;;;;;5061984;28;20652;-80
2022/09/16 04:53:46;;;;;;;712.85;587.88;;;16.00;99.90;;;;;;5056083;28;20226;-81
2022/09/16 04:56:15;;;;;;;713.97;585.83;;;16.00;99.90;;;;;;5057097;28;20768;-80
2022/09/16 04:58:42;;;;;;;712.97;576.17;;;16.00;99.90;;;;;;5062855;28;20260;-80
2022/09/16 05:01:12;;;;;;;709.33;569.20;;;16.00;99.90;;;;;;5056509;28;20205;-79
2022/09/16 05:03:39;;;;;;;717.47;592.97;;;16.00;99.90;;;;;;5057702;28;20228;-80
2022/09/16 05:06:08;;;;;;;713.53;588.72;;;16.00;99.90;;;;;;5041364;28;20202;-79
2022/09/16 05:08:35;;;;;;;714.67;594.97;;;16.00;99.90;;;;;;5055278;28;20205;-79
2022/09/16 05:11:04;;;;;;;712.78;566.97;;;16.00;99.90;;;;;;5049806;28;20201;-78
2022/09/16 05:13:31;;;;;;;712.47;578.88;;;16.00;99.90;;;;;;5056781;28;20282;-78
2022/09/16 05:16:02;;;;;;;716.47;592.25;;;16.00;99.90;;;;;;5057672;28;20221;-79
2022/09/16 05:18:30;;;;;;;713.20;588.20;;;16.00;99.90;;;;;;5055548;28;20202;-79
2022/09/16 05:20:59;;;;;;;716.75;583.22;;;16.00;99.90;;;;;;5061024;28;20195;-79
2022/09/16 05:23:26;;;;;;;711.88;582.60;;;16.00;99.90;;;;;;5057350;28;20199;-78
2022/09/16 05:25:54;;;;;;;716.70;589.55;;;16.00;99.90;;;;;;5053944;28;20218;-78
2022/09/16 05:28:21;;;;;;;711.50;577.00;;;16.00;99.90;;;;;;5059405;28;20205;-79
2022/09/16 05:30:48;;;;;;;713.83;582.13;;;16.00;99.90;;;;;;5058137;28;20248;-78
2022/09/16 05:33:14;;;;;;;706.67;559.65;;;16.00;99.90;;;;;;5063253;28;20194;-79
2022/09/16 05:35:44;;;;;;;707.80;555.50;;;16.00;99.90;;;;;;5067895;28;20672;-79
2022/09/16 05:38:11;;;;;;;715.92;596.95;;;16.00;99.90;;;;;;5063998;28;20206;-79
2022/09/16 05:40:38;;;;;;;714.75;583.08;;;16.00;99.90;;;;;;5064119;28;20201;-79
2022/09/16 05:43:05;;;;;;;709.85;564.20;;;16.00;99.90;;;;;;5056492;28;20306;-79
2022/09/16 05:45:32;;;;;;;712.58;584.80;;;16.00;99.90;;;;;;5059439;28;20564;-79
2022/09/16 05:47:58;;;;;;;713.72;577.25;;;16.00;99.90;;;;;;5049230;28;20199;-82
2022/09/16 05:50:25;;;;;;;712.90;585.20;;;15.90;99.90;;;;;;5050034;28;20561;-82
2022/09/16 05:52:53;;;;;;;707.80;562.17;;;15.90;99.90;;;;;;5050542;28;20198;-82
2022/09/16 05:55:20;;;;;;;712.63;585.25;;;16.00;99.90;;;;;;5052681;28;20221;-83
2022/09/16 05:57:47;;;;;;;707.22;557.70;;;15.90;99.90;;;;;;5051725;28;20265;-82
2022/09/16 06:00:17;;;;;;;715.00;587.35;;;15.90;99.90;;;;;;5051885;28;20678;-81
2022/09/16 06:02:43;;;;;;;714.78;592.00;;;15.90;99.90;;;;;;5053003;28;20224;-81
2022/09/16 06:05:10;;;;;;;708.65;561.95;;;15.90;99.90;;;;;;5053510;28;20188;-81
2022/09/16 06:07:37;;;;;;;714.22;584.70;;;15.90;99.90;;;;;;5048990;28;20205;-82
2022/09/16 06:10:06;;;;;;;715.15;588.28;;;15.90;99.90;;;;;;5053193;28;20219;-81
2022/09/16 06:12:33;;;;;;;714.28;591.80;;;15.90;99.90;;;;;;5053162;28;20279;-79
2022/09/16 06:15:00;;;;;;;712.40;583.85;;;15.90;99.90;;;;;;5053109;28;20886;-81
2022/09/16 06:17:27;;;;;;;715.50;591.00;;;15.90;99.90;;;;;;5049950;28;20288;-81
2022/09/16 06:19:54;;;;;;;717.03;592.63;;;15.90;99.90;;;;;;5051725;28;20271;-82
2022/09/16 06:22:20;;;;;;;709.35;576.70;;;15.90;99.90;;;;;;5054915;28;20563;-82
2022/09/16 06:24:48;;;;;;;711.47;571.28;;;15.90;99.90;;;;;;5054743;28;20687;-82
2022/09/16 06:27:16;;;;;;;711.40;576.58;;;15.90;99.90;;;;;;5052050;28;20206;-82
2022/09/16 06:29:43;;;;;;;703.28;539.10;;;15.90;99.90;;;;;;5051462;28;20204;-81
2022/09/16 06:32:10;;;;;;;716.20;589.45;;;15.90;99.90;;;;;;5044004;28;20201;-81
2022/09/16 06:34:36;;;;;;;712.88;582.38;;;15.90;99.90;;;;;;5053111;28;20562;-81
2022/09/16 06:37:03;;;;;;;715.33;590.40;;;15.90;99.90;;;;;;5049106;28;20226;-82
2022/09/16 06:39:30;;;;;;;711.58;579.35;;;15.90;99.90;;;;;;5043560;28;20206;-81
2022/09/16 06:41:56;;;;;;;713.78;587.13;;;15.90;99.90;;;;;;5051590;28;20189;-82
2022/09/16 06:44:25;;;;;;;707.75;558.10;;;15.90;99.90;;;;;;5051742;28;20224;-82
2022/09/16 06:46:51;;;;;;;713.97;583.08;;;15.90;99.90;;;;;;5048307;28;20197;-81
2022/09/16 06:49:18;;;;;;;706.78;554.30;;;15.90;99.90;;;;;;5038557;28;20205;-82
2022/09/16 06:51:45;;;;;;;704.97;551.85;;;15.90;99.90;;;;;;5042343;28;20233;-81
2022/09/16 06:54:12;;;;;;;711.75;579.05;;;15.90;99.90;;;;;;5046761;28;20194;-82
2022/09/16 06:56:40;;;;;;;710.97;580.28;;;16.00;99.90;;;;;;5049664;28;20712;-81
2022/09/16 06:59:07;;;;;;;713.53;593.88;;;16.00;99.90;;;;;;5050346;28;20209;-84
2022/09/16 07:01:35;;;;;;;711.58;582.70;;;16.00;99.90;;;;;;5049963;28;20254;-82
2022/09/16 07:04:05;;;;;;;711.65;574.13;;;16.00;99.90;;;;;;5052065;28;20217;-80
2022/09/16 07:06:33;;;;;;;713.58;585.63;;;16.00;99.90;;;;;;5050045;28;20198;-79
2022/09/16 07:08:59;;;;;;;705.55;557.53;;;16.00;99.90;;;;;;5051957;28;20194;-81
2022/09/16 07:11:26;;;;;;;711.22;581.83;;;16.00;99.90;;;;;;5052260;28;20539;-78
2022/09/16 07:13:53;;;;;;;704.33;561.70;;;16.10;99.90;;;;;;5052091;28;20205;-79
2022/09/16 07:16:22;;;;;;;709.05;578.40;;;16.10;99.90;;;;;;5046541;28;20232;-78
2022/09/16 07:18:54;;;;;;;709.20;578.35;;;16.10;99.90;;;;;;5046191;28;20208;-79
2022/09/16 07:21:23;;;;;;;714.92;587.83;;;16.10;99.90;;;;;;5051924;28;20198;-81
2022/09/16 07:23:50;;;;;;;714.22;579.13;;;16.10;99.90;;;;;;5050247;28;20480;-79
2022/09/16 07:26:18;;;;;;;709.25;581.75;;;16.10;99.90;;;;;;5051964;28;20209;-82
2022/09/16 07:28:47;;;;;;;711.88;577.88;;;16.10;99.90;;;;;;5051733;28;20197;-83
2022/09/16 07:31:16;;;;;;;709.83;579.55;;;16.10;99.90;;;;;;5050259;28;20228;-82
2022/09/16 07:33:44;;;;;;;710.10;582.88;;;16.10;99.90;;;;;;5049998;28;20197;-82
2022/09/16 07:36:14;;;;;;;714.47;588.30;;;16.10;99.90;;;;;;5038963;28;20221;-82
2022/09/16 07:38:41;;;;;;;711.40;584.78;;;16.10;99.90;;;;;;5046898;28;20198;-81
2022/09/16 07:41:11;;;;;;;709.35;578.42;;;16.10;99.90;;;;;;5048588;28;20579;-83
2022/09/16 07:43:40;;;;;;;709.15;576.80;;;16.10;99.90;;;;;;5048261;28;20691;-82
2022/09/16 07:46:07;;;;;;;705.60;558.63;;;16.10;99.90;;;;;;5042436;28;20711;-82
2022/09/16 07:48:35;;;;;;;704.10;561.45;;;16.10;99.90;;;;;;5051638;28;20707;-82
2022/09/16 07:51:03;;;;;;;711.10;582.47;;;16.10;99.90;;;;;;5050595;28;20198;-82
2022/09/16 07:53:32;;;;;;;703.22;553.83;;;16.10;99.90;;;;;;5042818;28;20205;-81
2022/09/16 07:56:02;;;;;;;710.70;582.80;;;16.10;99.90;;;;;;5047952;28;20228;-82
2022/09/16 07:58:28;;;;;;;704.10;552.72;;;16.10;99.90;;;;;;5047070;28;20679;-82
2022/09/16 08:00:55;;;;;;;703.63;562.05;;;16.20;99.90;;;;;;5047204;28;20206;-82
2022/09/16 08:03:22;;;;;;;714.55;610.85;;;16.40;99.90;;;;;;5043467;28;20715;-82
2022/09/16 08:05:49;;;;;;;710.47;587.90;;;16.60;99.90;;;;;;5045332;28;20199;-81
2022/09/16 08:08:16;;;;;;;719.13;624.63;;;16.80;99.90;;;;;;5045981;28;20672;-81
2022/09/16 08:10:44;;;;;;;722.53;633.58;;;17.00;99.90;;;;;;5044656;28;20206;-79
2022/09/16 08:13:10;;;;;;;729.00;647.30;;;17.30;99.90;;;;;;5047346;28;20270;-82
2022/09/16 08:15:37;;;;;;;723.92;641.35;;;17.40;99.90;;;;;;5048466;28;20558;-82
2022/09/16 08:18:04;;;;;;;752.40;671.55;;;17.50;99.90;;;;;;5046835;28;20226;-81
2022/09/16 08:20:31;;;;;;;745.75;664.85;;;17.70;99.90;;;;;;5047757;28;20202;-81
2022/09/16 08:22:57;;;;;;;742.15;661.50;;;17.80;99.90;;;;;;5043761;28;20669;-81
2022/09/16 08:25:25;;;;;;;759.28;678.25;;;17.80;99.90;;;;;;5048766;28;20198;-82
2022/09/16 08:27:54;;;;;;;771.65;690.47;;;17.90;99.90;;;;;;5042425;28;20187;-82
2022/09/16 08:30:20;;;;;;;757.58;676.42;;;17.90;99.90;;;;;;5047154;28;20195;-81
2022/09/16 08:32:47;;;;;;;771.45;690.35;;;18.00;99.90;;;;;;5046403;28;20203;-82
2022/09/16 08:35:14;;;;;;;753.88;673.17;;;18.00;99.90;;;;;;5047941;28;20227;-81
2022/09/16 08:37:41;;;;;;;784.63;702.92;;;18.10;99.90;;;;;;5045634;28;20222;-80
2022/09/16 08:40:14;;;;;;;787.83;706.13;;;18.10;99.90;;;;;;5046608;28;20195;-80
2022/09/16 08:42:52;;;;;;;770.00;688.78;;;18.10;99.90;;;;;;5045078;28;20305;-81
2022/09/16 08:45:27;;;;;;;792.20;710.42;;;18.20;99.90;;;;;;5044708;28;20195;-80
2022/09/16 08:48:06;;;;;;;774.28;692.88;;;18.20;99.90;;;;;;5048173;28;20630;-80
2022/09/16 08:50:41;;;;;;;766.35;685.35;;;18.20;99.90;;;;;;5046871;28;20654;-81
2022/09/16 08:53:15;;;;;;;780.75;699.40;;;18.20;99.90;;;;;;5041178;28;20200;-81
2022/09/16 08:55:46;;;;;;;772.53;691.50;;;18.20;99.90;;;;;;5041771;28;20195;-81
2022/09/16 08:58:16;;;;;;;768.80;687.95;;;18.10;99.90;;;;;;5048906;28;20608;-81
2022/09/16 09:00:48;;;;;;;780.53;699.17;;;18.20;99.90;;;;;;5049136;28;20205;-81
2022/09/16 09:03:22;;;;;;;771.80;690.85;;;18.20;99.90;;;;;;5043457;28;20658;-82
2022/09/16 09:05:52;;;;;;;743.40;662.97;;;18.20;99.90;;;;;;5048182;28;20195;-81
2022/09/16 09:08:37;;;;;;;766.03;685.28;;;18.20;99.90;;;;;;5049058;28;20238;-83
2022/09/16 09:11:14;;;;;;;778.38;697.08;;;18.20;99.90;;;;;;5049318;28;20210;-79
2022/09/16 09:14:05;;;;;;;785.90;704.53;;;18.20;99.90;;;;;;5050336;28;20191;-82
2022/09/16 09:16:41;;;;;;;772.58;691.63;;;18.20;99.90;;;;;;5036335;28;20211;-80
2022/09/16 09:19:23;;;;;;;777.72;696.67;;;18.20;99.90;;;;;;5042941;28;20202;-81
2022/09/16 09:21:59;;;;;;;760.08;679.47;;;18.20;99.90;;;;;;5045361;28;20204;-80
2022/09/16 09:24:47;;;;;;;764.38;683.63;;;18.20;99.90;;;;;;5048109;28;20192;-80
2022/09/16 09:27:17;;;;;;;780.83;699.53;;;18.20;99.90;;;;;;5042143;28;20601;-79
2022/09/16 09:30:02;;;;;;;782.88;701.25;;;18.20;99.90;;;;;;5043537;28;20558;-81
2022/09/16 09:32:44;;;;;;;763.88;683.13;;;18.20;99.90;;;;;;5052067;28;20199;-82
2022/09/16 09:35:24;;;;;;;761.88;681.08;;;18.10;99.90;;;;;;5053524;28;20191;-82
2022/09/16 09:38:23;;;;;;;752.97;672.38;;;18.00;99.90;;;;;;5051268;28;20215;-78
2022/09/16 09:40:55;;;;;;;762.53;681.63;;;18.00;99.90;;;;;;5047085;28;20227;-80
2022/09/16 09:43:28;;;;;;;763.22;682.47;;;17.90;99.90;;;;;;5053202;28;20654;-81
2022/09/16 09:46:02;;;;;;;729.05;649.00;;;17.80;99.90;;;;;;5049003;28;20593;-80
2022/09/16 09:48:36;;;;;;;764.30;683.50;;;17.80;99.90;;;;;;5049538;28;20650;-80
2022/09/16 09:51:10;;;;;;;718.97;634.45;;;17.70;99.90;;;;;;5048596;28;20209;-80
2022/09/16 09:53:45;;;;;;;743.30;662.83;;;17.70;99.90;;;;;;5050805;28;20205;-78
2022/09/16 09:56:18;;;;;;;740.78;660.60;;;17.70;99.90;;;;;;5052722;28;20640;-79
2022/09/16 09:58:53;;;;;;;748.28;668.00;;;17.70;99.90;;;;;;5042805;28;20210;-79
2022/09/16 10:01:20;;;;;;;748.33;668.05;;;17.70;99.90;;;;;;5043588;28;20723;-79
2022/09/16 10:03:50;;;;;;;715.63;633.55;;;17.70;99.90;;;;;;5050772;28;20230;-79
2022/09/16 10:06:22;;;;;;;751.47;670.83;;;17.70;99.90;;;;;;5042168;28;20208;-79
2022/09/16 10:08:51;;;;;;;739.53;659.28;;;17.70;99.90;;;;;;5052067;28;20233;-79
2022/09/16 10:11:22;;;;;;;741.55;661.25;;;17.80;99.90;;;;;;5051233;28;20248;-80
2022/09/16 10:13:50;;;;;;;756.08;675.47;;;17.80;99.90;;;;;;5044808;28;20207;-80
2022/09/16 10:18:58;;;;;;;796.95;713.80;;;17.90;99.90;;;;;;4978632;28;20213;-72
2022/09/16 10:21:26;;;;;;;759.33;678.55;;;17.90;99.90;;;;;;4989551;28;20258;-72
2022/09/16 10:23:54;;;;;;;768.15;687.00;;;17.90;99.90;;;;;;4989179;28;20284;-72
2022/09/16 10:26:23;;;;;;;774.15;693.00;;;17.90;99.90;;;;;;5003773;28;20667;-72
2022/09/16 10:28:59;;;;;;;756.67;676.17;;;18.00;99.90;;;;;;5000900;28;20197;-73
2022/09/16 10:31:31;;;;;;;744.47;664.10;;;18.00;99.90;;;;;;4983986;28;20198;-75
2022/09/16 10:34:01;;;;;;;765.90;685.03;;;18.00;99.90;;;;;;4989231;28;20193;-73
2022/09/16 10:36:32;;;;;;;781.10;699.53;;;18.00;99.90;;;;;;4997762;28;20208;-75
2022/09/16 10:39:02;;;;;;;760.75;679.90;;;18.00;99.90;;;;;;4992944;28;20193;-75
2022/09/16 10:41:32;;;;;;;773.17;692.10;;;17.90;99.90;;;;;;4993012;28;20263;-72
2022/09/16 10:44:01;;;;;;;758.13;677.35;;;17.90;99.90;;;;;;4982284;28;20248;-74
2022/09/16 10:46:29;;;;;;;755.60;674.85;;;17.90;99.90;;;;;;4984534;28;20197;-73
2022/09/16 10:49:02;;;;;;;762.08;681.17;;;17.80;99.90;;;;;;4987113;28;20219;-73
2022/09/16 10:51:30;;;;;;;758.70;677.55;;;17.70;99.90;;;;;;4989029;28;20197;-76
2022/09/16 10:53:59;;;;;;;761.97;680.90;;;17.70;99.90;;;;;;4990250;28;20268;-73
2022/09/16 10:56:28;;;;;;;720.20;634.13;;;17.60;99.90;;;;;;4987706;28;20266;-73
2022/09/16 10:59:05;;;;;;;742.13;661.53;;;17.60;99.90;;;;;;4990297;28;20564;-77
2022/09/16 11:01:43;;;;;;;731.05;650.38;;;17.50;99.90;;;;;;4985567;28;20612;-73
2022/09/16 11:04:53;;;;;;;739.33;658.72;;;17.50;99.90;;;;;;4984508;28;20221;-73
2022/09/16 11:07:32;;;;;;;718.83;633.30;;;17.50;99.90;;;;;;4980339;28;20200;-74
2022/09/16 11:10:04;;;;;;;714.53;610.13;;;17.40;99.90;;;;;;4987070;28;20764;-74
2022/09/16 11:13:03;;;;;;;717.38;630.28;;;17.40;99.90;;;;;;4976970;28;20197;-73
2022/09/16 11:15:44;;;;;;;713.92;605.90;;;17.40;99.90;;;;;;4969689;28;20232;-76
2022/09/16 11:18:25;;;;;;;722.38;639.25;;;17.30;99.90;;;;;;4969234;28;20308;-73
2022/09/16 11:21:07;;;;;;;718.40;629.30;;;17.30;99.90;;;;;;4962186;28;20202;-74
2022/09/16 11:23:49;;;;;;;732.13;651.65;;;17.30;99.90;;;;;;4965769;28;20205;-72
2022/09/16 11:26:24;;;;;;;716.97;624.28;;;17.30;99.90;;;;;;4966769;28;20202;-73
2022/09/16 11:29:14;;;;;;;720.08;635.80;;;17.30;99.90;;;;;;4973267;28;20197;-74
2022/09/16 11:31:49;;;;;;;727.67;646.70;;;17.30;99.90;;;;;;4967529;28;20190;-74
2022/09/16 11:34:33;;;;;;;725.38;643.95;;;17.30;99.90;;;;;;4972948;28;20204;-74
2022/09/16 11:37:12;;;;;;;728.53;646.72;;;17.30;99.90;;;;;;4964413;28;20221;-74
2022/09/16 11:39:59;;;;;;;717.17;630.53;;;17.30;99.90;;;;;;4971815;28;20193;-74
2022/09/16 11:42:33;;;;;;;715.63;622.50;;;17.30;99.90;;;;;;4966837;28;20251;-73
2022/09/16 11:45:11;;;;;;;723.95;640.53;;;17.30;99.90;;;;;;4976914;28;20281;-74
2022/09/16 11:47:47;;;;;;;723.38;638.28;;;17.30;99.90;;;;;;4957146;28;20727;-74
2022/09/16 11:50:34;;;;;;;725.65;641.42;;;17.30;99.90;;;;;;4971793;28;20205;-74
2022/09/16 11:53:31;;;;;;;725.08;642.22;;;17.30;99.90;;;;;;4966310;28;20198;-73
2022/09/16 11:56:03;;;;;;;723.00;639.00;;;17.30;99.90;;;;;;4967167;28;20193;-73
2022/09/16 11:58:38;;;;;;;728.72;646.03;;;17.30;99.90;;;;;;4967787;28;20222;-72
2022/09/16 12:01:15;;;;;;;726.22;642.33;;;17.30;99.90;;;;;;4965260;28;20201;-74
2022/09/16 12:03:48;;;;;;;721.03;631.65;;;17.20;99.90;;;;;;4968087;28;20214;-76
2022/09/16 12:06:18;;;;;;;724.67;641.05;;;17.30;99.90;;;;;;4973901;28;20683;-72
2022/09/16 12:08:53;;;;;;;730.80;650.13;;;17.30;99.90;;;;;;4970510;28;20253;-73
2022/09/16 12:11:31;;;;;;;721.65;638.22;;;17.30;99.90;;;;;;4965466;28;20271;-74
2022/09/16 12:14:05;;;;;;;719.20;628.35;;;17.30;99.90;;;;;;4962807;28;20201;-73
2022/09/16 12:16:39;;;;;;;727.83;644.28;;;17.30;99.90;;;;;;4968084;28;20308;-73
2022/09/16 12:19:13;;;;;;;715.45;623.03;;;17.20;99.90;;;;;;4976236;28;20285;-72
2022/09/16 12:21:44;;;;;;;728.72;648.33;;;17.20;99.90;;;;;;4971680;28;20699;-72
2022/09/16 12:24:20;;;;;;;720.55;635.65;;;17.20;99.90;;;;;;4977197;28;20193;-72
2022/09/16 12:26:51;;;;;;;721.03;638.75;;;17.20;99.90;;;;;;4976588;28;20718;-73
2022/09/16 12:29:23;;;;;;;720.05;634.63;;;17.20;99.90;;;;;;4972966;28;20269;-74
2022/09/16 12:31:55;;;;;;;713.05;603.40;;;17.20;99.90;;;;;;4970504;28;20555;-74